Time;durP1;ratioP1;P1;durP2;ratioP2;P2;SDS_P1;SDS_P2;PMS_P1;PMS_P2;Temp;Humidity;BMP_temperature;BMP_pressure;BME280_temperature;BME280_humidity;BME280_pressure;Samples;Min_cycle;Max_cycle;Signal;HPM_P1;HPM_P2
2022/05/22 00:01:26;;;;;;;;;;;;;;;17.13;65.43;95009.44;5137979;27;1055;-49
2022/05/22 00:03:52;;;;;;;;;;;;;;;17.22;64.79;95011.94;5138196;27;1059;-48
2022/05/22 00:06:18;;;;;;;;;;;;;;;17.12;65.79;95006.94;5121972;27;1167;-49
2022/05/22 00:08:44;;;;;;;;;;;;;;;17.13;65.70;95014.84;5117696;28;999;-49
2022/05/22 00:11:10;;;;;;;;;;;;;;;17.09;66.20;95016.28;5117399;28;968;-49
2022/05/22 00:13:36;;;;;;;;;;;;;;;16.79;66.53;95018.47;5117387;28;1118;-49
2022/05/22 00:18:47;;;;;;;;;;;;;;;17.04;65.49;95017.94;5117293;28;1050;-49
2022/05/22 00:21:13;;;;;;;;;;;;;;;17.02;66.17;95017.31;5117360;28;956;-48
2022/05/22 00:23:40;;;;;;;;;;;;;;;16.90;66.56;95015.22;5115986;28;989;-49
2022/05/22 00:26:06;;;;;;;;;;;;;;;16.82;66.29;95009.13;5117056;28;1031;-49
2022/05/22 00:28:32;;;;;;;;;;;;;;;16.73;66.57;95003.06;5117195;28;1036;-49
2022/05/22 00:30:58;;;;;;;;;;;;;;;16.77;66.17;95007.88;5117005;28;956;-49
2022/05/22 00:33:26;;;;;;;;;;;;;;;16.74;66.28;94999.34;5116901;28;995;-49
2022/05/22 00:35:52;;;;;;;;;;;;;;;16.73;66.74;94997.66;5116704;28;1983;-48
2022/05/22 00:38:18;;;;;;;;;;;;;;;16.66;66.65;94996.81;5117242;28;983;-49
2022/05/22 00:40:44;;;;;;;;;;;;;;;16.57;66.81;94990.75;5116892;28;1110;-49
2022/05/22 00:43:30;;;;;;;;;;;;;;;16.61;66.62;94993.91;5117062;28;976;-49
2022/05/22 00:45:57;;;;;;;;;;;;;;;16.46;67.73;94991.34;5116485;28;1117;-48
2022/05/22 00:48:23;;;;;;;;;;;;;;;16.36;67.50;94986.31;5116947;28;1000;-49
2022/05/22 00:50:51;;;;;;;;;;;;;;;16.17;68.17;94985.19;5116872;28;1039;-49
2022/05/22 00:53:18;;;;;;;;;;;;;;;16.04;68.82;94988.66;5116904;28;1034;-49
2022/05/22 00:55:44;;;;;;;;;;;;;;;16.16;68.41;94987.06;5116325;28;1914;-49
2022/05/22 00:58:12;;;;;;;;;;;;;;;16.24;68.04;94982.50;5116832;28;1020;-49
2022/05/22 01:00:38;;;;;;;;;;;;;;;16.40;67.57;94982.19;5116637;28;1035;-49
2022/05/22 01:03:27;;;;;;;;;;;;;;;16.34;67.86;94988.38;5116588;28;1027;-49
2022/05/22 01:05:55;;;;;;;;;;;;;;;16.38;67.64;94978.84;5129223;27;1145;-49
2022/05/22 01:08:21;;;;;;;;;;;;;;;16.32;67.74;94985.88;5137099;27;1031;-49
2022/05/22 01:10:48;;;;;;;;;;;;;;;16.34;67.52;94977.59;5135596;27;969;-49
2022/05/22 01:13:17;;;;;;;;;;;;;;;16.13;68.36;94976.66;5136474;27;1646;-49
2022/05/22 01:15:44;;;;;;;;;;;;;;;15.75;69.63;94982.47;5136954;27;1910;-49
2022/05/22 01:18:10;;;;;;;;;;;;;;;15.73;69.81;94984.53;5136609;27;1023;-49
2022/05/22 01:20:37;;;;;;;;;;;;;;;15.73;69.97;94986.38;5136902;27;1051;-48
2022/05/22 01:23:03;;;;;;;;;;;;;;;15.81;69.85;94989.75;5136647;27;984;-49
2022/05/22 01:25:29;;;;;;;;;;;;;;;15.71;70.13;94983.88;5136500;27;952;-49
2022/05/22 01:27:55;;;;;;;;;;;;;;;15.89;69.47;94980.69;5136370;27;1227;-49
2022/05/22 01:30:24;;;;;;;;;;;;;;;15.93;69.51;94975.72;5136501;27;1008;-49
2022/05/22 01:32:50;;;;;;;;;;;;;;;15.92;69.39;94980.28;5136305;27;1024;-49
2022/05/22 01:35:18;;;;;;;;;;;;;;;15.76;70.25;94981.44;5136614;27;1914;-49
2022/05/22 01:37:45;;;;;;;;;;;;;;;15.60;70.74;94987.09;5136201;27;1007;-49
2022/05/22 01:40:12;;;;;;;;;;;;;;;15.58;71.02;94978.38;5136450;27;987;-49
2022/05/22 01:42:39;;;;;;;;;;;;;;;15.73;69.98;94973.75;5136352;27;1056;-49
2022/05/22 01:45:05;;;;;;;;;;;;;;;15.70;70.50;94976.78;5136519;27;937;-49
2022/05/22 01:47:32;;;;;;;;;;;;;;;15.75;70.02;94974.38;5136208;27;993;-49
2022/05/22 01:49:58;;;;;;;;;;;;;;;15.86;69.43;94962.22;5136531;27;1055;-49
2022/05/22 01:52:24;;;;;;;;;;;;;;;15.95;69.03;94971.81;5135872;27;1031;-49
2022/05/22 01:54:50;;;;;;;;;;;;;;;15.85;70.03;94967.81;5135563;27;1910;-49
2022/05/22 01:57:17;;;;;;;;;;;;;;;15.74;70.50;94969.19;5136158;27;1235;-49
2022/05/22 01:59:43;;;;;;;;;;;;;;;15.53;71.24;94975.44;5136117;27;944;-48
2022/05/22 02:02:09;;;;;;;;;;;;;;;15.40;71.74;94976.16;5135931;27;1043;-49
2022/05/22 02:04:35;;;;;;;;;;;;;;;15.47;71.42;94982.44;5134418;27;1211;-49
2022/05/22 02:09:46;;;;;;;;;;;;;;;15.80;69.93;94976.47;5115324;28;1030;-49
2022/05/22 02:12:12;;;;;;;;;;;;;;;16.00;69.54;94971.22;5114980;28;1884;-49
2022/05/22 02:14:38;;;;;;;;;;;;;;;15.98;69.61;94970.56;5114749;28;1918;-49
2022/05/22 02:17:04;;;;;;;;;;;;;;;15.66;70.50;94969.31;5115121;28;979;-48
2022/05/22 02:19:30;;;;;;;;;;;;;;;15.57;70.97;94974.81;5114748;28;1096;-49
2022/05/22 02:21:57;;;;;;;;;;;;;;;15.74;70.52;94975.41;5114505;28;913;-49
2022/05/22 02:24:23;;;;;;;;;;;;;;;15.66;70.41;94974.69;5114348;28;997;-49
2022/05/22 02:26:49;;;;;;;;;;;;;;;15.46;71.39;94979.94;5115140;28;1043;-49
2022/05/22 02:29:16;;;;;;;;;;;;;;;15.37;71.32;94974.69;5114941;28;956;-49
2022/05/22 02:31:42;;;;;;;;;;;;;;;15.53;70.74;94968.16;5114973;28;1060;-49
2022/05/22 02:34:08;;;;;;;;;;;;;;;15.54;70.85;94971.72;5114923;28;1505;-49
2022/05/22 02:36:34;;;;;;;;;;;;;;;15.29;71.90;94974.00;5114431;28;1909;-49
2022/05/22 02:39:00;;;;;;;;;;;;;;;15.13;72.47;94973.25;5114235;28;1035;-49
2022/05/22 02:41:26;;;;;;;;;;;;;;;15.20;72.41;94978.69;5114769;28;1014;-49
2022/05/22 02:43:52;;;;;;;;;;;;;;;15.17;72.76;94981.78;5114291;28;1052;-48
2022/05/22 02:46:19;;;;;;;;;;;;;;;15.26;72.50;94986.00;5114804;28;1007;-49
2022/05/22 02:48:46;;;;;;;;;;;;;;;15.36;72.24;94985.66;5114157;28;1084;-49
2022/05/22 02:51:14;;;;;;;;;;;;;;;15.30;72.50;94992.66;5114421;28;1027;-48
2022/05/22 02:53:40;;;;;;;;;;;;;;;15.34;72.25;94995.78;5114051;28;980;-49
2022/05/22 02:56:10;;;;;;;;;;;;;;;15.31;71.92;95002.41;5114420;28;1914;-49
2022/05/22 02:58:36;;;;;;;;;;;;;;;15.11;71.98;94993.31;5114611;28;974;-49
2022/05/22 03:01:03;;;;;;;;;;;;;;;15.16;72.40;94990.88;5114518;28;1028;-49
2022/05/22 03:03:29;;;;;;;;;;;;;;;15.26;71.82;94995.94;5113912;28;1197;-49
2022/05/22 03:08:40;;;;;;;;;;;;;;;15.01;73.03;94999.84;5134587;27;957;-49
2022/05/22 03:11:07;;;;;;;;;;;;;;;15.27;72.44;94997.59;5134744;27;1055;-49
2022/05/22 03:13:33;;;;;;;;;;;;;;;15.32;72.04;95006.75;5134154;27;1044;-49
2022/05/22 03:15:59;;;;;;;;;;;;;;;14.90;72.93;94997.66;5134844;27;1913;-49
2022/05/22 03:18:25;;;;;;;;;;;;;;;14.91;73.16;95006.56;5134172;27;1008;-49
2022/05/22 03:20:51;;;;;;;;;;;;;;;15.09;73.17;95001.59;5134475;27;1115;-49
2022/05/22 03:23:17;;;;;;;;;;;;;;;15.27;73.03;95002.97;5134493;27;1073;-49
2022/05/22 03:25:46;;;;;;;;;;;;;;;15.32;72.85;94998.69;5134059;27;1074;-49
2022/05/22 03:28:12;;;;;;;;;;;;;;;15.10;73.44;95005.09;5134388;27;999;-49
2022/05/22 03:30:38;;;;;;;;;;;;;;;14.94;74.34;95012.41;5134312;27;1059;-49
2022/05/22 03:33:05;;;;;;;;;;;;;;;15.08;73.84;95009.84;5134063;27;1028;-49
2022/05/22 03:35:31;;;;;;;;;;;;;;;15.36;72.89;95012.59;5133708;27;1909;-49
2022/05/22 03:37:57;;;;;;;;;;;;;;;15.31;73.33;95004.25;5134308;27;1129;-49
2022/05/22 03:40:24;;;;;;;;;;;;;;;15.08;74.03;95020.63;5134206;28;991;-49
2022/05/22 03:42:50;;;;;;;;;;;;;;;15.25;73.37;95010.44;5134473;27;945;-49
2022/05/22 03:45:16;;;;;;;;;;;;;;;15.39;73.13;95021.13;5134040;28;1042;-49
2022/05/22 03:47:42;;;;;;;;;;;;;;;15.20;73.57;95030.69;5134046;28;992;-49
2022/05/22 03:50:09;;;;;;;;;;;;;;;15.26;73.68;95021.00;5134332;27;1039;-49
2022/05/22 03:52:36;;;;;;;;;;;;;;;15.37;73.51;95020.50;5134008;27;1621;-48
2022/05/22 03:55:04;;;;;;;;;;;;;;;15.18;73.63;95021.97;5133693;27;1898;-49
2022/05/22 03:57:30;;;;;;;;;;;;;;;15.27;73.50;95027.22;5134312;27;1032;-49
2022/05/22 03:59:57;;;;;;;;;;;;;;;15.44;72.99;95025.91;5134093;28;998;-48
2022/05/22 04:02:23;;;;;;;;;;;;;;;15.58;73.06;95025.00;5133900;27;953;-49
2022/05/22 04:04:49;;;;;;;;;;;;;;;15.70;72.61;95019.91;5130329;28;1220;-49
2022/05/22 04:07:16;;;;;;;;;;;;;;;15.72;72.40;95020.53;5113423;28;948;-49
2022/05/22 04:09:42;;;;;;;;;;;;;;;15.58;73.17;95011.53;5113400;28;995;-49
2022/05/22 04:12:09;;;;;;;;;;;;;;;15.66;72.92;95020.50;5113640;28;961;-49
2022/05/22 04:14:35;;;;;;;;;;;;;;;15.80;72.64;95025.84;5113044;28;1083;-49
2022/05/22 04:17:01;;;;;;;;;;;;;;;15.83;73.09;95021.91;5113160;28;1979;-49
2022/05/22 04:19:27;;;;;;;;;;;;;;;15.91;72.59;95018.22;5113066;28;1084;-49
2022/05/22 04:21:53;;;;;;;;;;;;;;;16.04;72.24;95028.28;5113568;28;1083;-49
2022/05/22 04:27:05;;;;;;;;;;;;;;;16.46;70.72;95021.84;5113546;28;996;-49
2022/05/22 04:29:32;;;;;;;;;;;;;;;16.59;70.95;95013.81;5112889;28;1082;-49
2022/05/22 04:31:59;;;;;;;;;;;;;;;16.67;71.68;95014.66;5113204;28;1036;-48
2022/05/22 04:34:25;;;;;;;;;;;;;;;16.73;71.67;95021.94;5113306;28;1055;-48
2022/05/22 04:36:51;;;;;;;;;;;;;;;16.67;71.99;95017.38;5113253;28;1980;-48
2022/05/22 04:39:17;;;;;;;;;;;;;;;16.55;72.76;95019.81;5113315;28;1019;-48
2022/05/22 04:41:43;;;;;;;;;;;;;;;16.62;73.53;95022.53;5112894;28;1012;-48
2022/05/22 04:44:09;;;;;;;;;;;;;;;16.75;72.57;95025.28;5113096;28;952;-49
2022/05/22 04:46:35;;;;;;;;;;;;;;;16.87;72.54;95034.50;5116139;28;1051;-49
2022/05/22 04:49:01;;;;;;;;;;;;;;;16.95;72.65;95034.31;5117011;28;1047;-49
2022/05/22 04:51:27;;;;;;;;;;;;;;;16.84;72.46;95028.69;5116621;28;945;-49
2022/05/22 04:53:53;;;;;;;;;;;;;;;16.93;71.38;95028.28;5116449;28;1095;-49
2022/05/22 04:56:20;;;;;;;;;;;;;;;17.11;71.66;95026.88;5116392;28;1909;-48
2022/05/22 04:58:47;;;;;;;;;;;;;;;17.28;71.00;95033.56;5116756;28;1023;-49
2022/05/22 05:01:13;;;;;;;;;;;;;;;17.44;70.45;95031.50;5116293;28;1012;-49
2022/05/22 05:03:39;;;;;;;;;;;;;;;17.53;70.47;95032.97;5116505;28;1051;-49
2022/05/22 05:06:06;;;;;;;;;;;;;;;17.49;70.82;95031.69;5130394;27;1152;-49
2022/05/22 05:08:32;;;;;;;;;;;;;;;17.47;70.70;95028.38;5136896;27;973;-49
2022/05/22 05:10:59;;;;;;;;;;;;;;;17.39;70.90;95036.69;5136761;27;1024;-48
2022/05/22 05:13:26;;;;;;;;;;;;;;;17.32;72.19;95031.25;5136627;27;1103;-49
2022/05/22 05:16:00;;;;;;;;;;;;;;;17.33;72.23;95032.94;5135690;27;1926;-49
2022/05/22 05:18:26;;;;;;;;;;;;;;;17.48;72.12;95040.88;5136872;27;1071;-49
2022/05/22 05:20:52;;;;;;;;;;;;;;;17.71;71.36;95032.34;5136757;27;1007;-49
2022/05/22 05:23:18;;;;;;;;;;;;;;;18.86;67.79;95035.47;5136709;27;1058;-49
2022/05/22 05:25:45;;;;;;;;;;;;;;;19.25;65.81;95044.41;5136144;27;1305;-49
2022/05/22 05:28:11;;;;;;;;;;;;;;;19.20;64.69;95041.53;5136404;27;1003;-50
2022/05/22 05:30:37;;;;;;;;;;;;;;;18.80;64.58;95039.03;5136239;27;1875;-50
2022/05/22 05:33:03;;;;;;;;;;;;;;;18.55;67.32;95041.59;5136778;27;944;-50
2022/05/22 05:35:29;;;;;;;;;;;;;;;18.63;67.13;95043.22;5136468;27;1901;-49
2022/05/22 05:37:55;;;;;;;;;;;;;;;18.53;67.39;95041.81;5136405;27;1047;-49
2022/05/22 05:40:21;;;;;;;;;;;;;;;18.62;65.99;95047.00;5136694;27;1035;-49
2022/05/22 05:42:48;;;;;;;;;;;;;;;18.82;64.51;95045.06;5136050;27;995;-49
2022/05/22 05:45:15;;;;;;;;;;;;;;;18.93;64.68;95040.84;5136513;27;989;-50
2022/05/22 05:47:44;;;;;;;;;;;;;;;19.22;64.85;95039.44;5136291;27;1276;-50
2022/05/22 05:50:11;;;;;;;;;;;;;;;19.65;63.23;95040.59;5136488;27;1074;-50
2022/05/22 05:52:37;;;;;;;;;;;;;;;20.22;60.59;95046.00;5136095;27;983;-50
2022/05/22 05:55:03;;;;;;;;;;;;;;;19.99;61.29;95044.72;5136119;27;1910;-50
2022/05/22 05:57:29;;;;;;;;;;;;;;;20.01;61.10;95039.09;5134976;27;1075;-50
2022/05/22 05:59:55;;;;;;;;;;;;;;;19.86;60.73;95043.00;5136199;27;953;-49
2022/05/22 06:02:22;;;;;;;;;;;;;;;19.86;60.98;95048.41;5135973;27;1055;-49
2022/05/22 06:04:48;;;;;;;;;;;;;;;19.74;61.94;95049.34;5132603;27;1156;-49
2022/05/22 06:07:14;;;;;;;;;;;;;;;19.61;64.73;95047.53;5115227;28;1060;-50
2022/05/22 06:09:40;;;;;;;;;;;;;;;19.72;65.71;95044.13;5115112;28;984;-50
2022/05/22 06:12:06;;;;;;;;;;;;;;;19.79;64.23;95046.81;5115473;28;1060;-50
2022/05/22 06:14:32;;;;;;;;;;;;;;;20.03;63.60;95047.84;5114850;28;1114;-50
2022/05/22 06:16:59;;;;;;;;;;;;;;;20.55;62.67;95052.97;5114780;28;1910;-50
2022/05/22 06:22:13;;;;;;;;;;;;;;;21.25;60.98;95049.84;5114776;28;1106;-50
2022/05/22 06:24:39;;;;;;;;;;;;;;;21.23;61.04;95049.25;5114487;28;1036;-50
2022/05/22 06:27:05;;;;;;;;;;;;;;;21.32;60.85;95042.41;5114877;28;1195;-50
2022/05/22 06:29:31;;;;;;;;;;;;;;;21.29;60.28;95042.06;5114907;28;1070;-50
2022/05/22 06:31:57;;;;;;;;;;;;;;;21.54;60.21;95048.19;5114579;28;1080;-50
2022/05/22 06:34:24;;;;;;;;;;;;;;;21.67;59.90;95044.44;5114627;28;1028;-50
2022/05/22 06:36:51;;;;;;;;;;;;;;;21.81;59.11;95042.34;5114596;28;1905;-50
2022/05/22 06:42:02;;;;;;;;;;;;;;;21.98;58.52;95032.41;5114632;28;956;-50
2022/05/22 06:44:28;;;;;;;;;;;;;;;22.20;57.56;95042.75;5114462;28;1025;-49
2022/05/22 06:46:54;;;;;;;;;;;;;;;22.59;56.48;95034.94;5113037;28;1009;-49
2022/05/22 06:49:20;;;;;;;;;;;;;;;23.28;54.75;95037.75;5114518;28;965;-49
2022/05/22 06:51:47;;;;;;;;;;;;;;;23.59;54.25;95039.13;5114021;28;944;-50
2022/05/22 06:54:13;;;;;;;;;;;;;;;23.38;54.91;95034.38;5114367;28;1092;-50
2022/05/22 06:56:39;;;;;;;;;;;;;;;23.13;55.47;95034.72;5114244;28;1995;-50
2022/05/22 06:59:05;;;;;;;;;;;;;;;23.12;55.17;95035.78;5114414;28;1042;-50
2022/05/22 07:01:31;;;;;;;;;;;;;;;23.25;54.72;95037.41;5114319;28;1055;-49
2022/05/22 07:03:57;;;;;;;;;;;;;;;23.25;54.46;95032.78;5113956;28;1103;-49
2022/05/22 07:06:23;;;;;;;;;;;;;;;23.30;55.50;95037.50;5130450;27;1208;-49
2022/05/22 07:08:49;;;;;;;;;;;;;;;23.32;54.27;95027.19;5133875;27;1016;-48
2022/05/22 07:13:59;;;;;;;;;;;;;;;23.66;53.43;95036.25;5134390;27;1131;-50
2022/05/22 07:16:26;;;;;;;;;;;;;;;23.78;54.76;95030.72;5134333;27;1905;-50
2022/05/22 07:18:52;;;;;;;;;;;;;;;23.69;54.60;95043.94;5134270;27;1032;-50
2022/05/22 07:21:18;;;;;;;;;;;;;;;23.82;54.26;95040.09;5133352;27;1810;-50
2022/05/22 07:23:44;;;;;;;;;;;;;;;24.25;50.91;95029.59;5134208;27;1022;-50
2022/05/22 07:26:12;;;;;;;;;;;;;;;24.47;51.79;95026.91;5134576;27;1046;-50
2022/05/22 07:28:38;;;;;;;;;;;;;;;24.71;48.50;95020.16;5134172;27;960;-50
2022/05/22 07:31:04;;;;;;;;;;;;;;;24.52;48.57;95036.03;5134466;27;1055;-50
2022/05/22 07:33:30;;;;;;;;;;;;;;;24.97;48.35;95023.25;5134048;27;1060;-50
2022/05/22 07:35:57;;;;;;;;;;;;;;;25.50;46.05;95029.06;5134359;27;1992;-50
2022/05/22 07:38:23;;;;;;;;;;;;;;;26.01;45.87;95026.00;5134314;27;1003;-50
2022/05/22 07:40:51;;;;;;;;;;;;;;;25.90;45.29;95030.56;5134409;27;1058;-50
2022/05/22 07:43:17;;;;;;;;;;;;;;;25.52;45.28;95024.16;5134331;27;980;-50
2022/05/22 07:45:43;;;;;;;;;;;;;;;25.36;45.43;95023.16;5134306;27;1035;-50
2022/05/22 07:48:09;;;;;;;;;;;;;;;25.29;44.26;95020.66;5133886;28;1010;-49
2022/05/22 07:50:35;;;;;;;;;;;;;;;25.34;45.34;95017.13;5134194;27;969;-50
2022/05/22 07:53:02;;;;;;;;;;;;;;;25.76;42.56;95010.97;5133917;28;1086;-49
2022/05/22 07:55:28;;;;;;;;;;;;;;;26.29;40.67;95011.16;5133997;27;1994;-49
2022/05/22 07:57:54;;;;;;;;;;;;;;;26.81;41.46;95009.59;5134246;27;953;-50
2022/05/22 08:00:20;;;;;;;;;;;;;;;26.84;41.71;95009.03;5134316;28;984;-50
2022/05/22 08:02:47;;;;;;;;;;;;;;;27.08;38.73;95007.50;5134155;27;1460;-50
2022/05/22 08:05:14;;;;;;;;;;;;;;;27.23;40.36;95005.91;5127429;27;1168;-50
2022/05/22 08:07:40;;;;;;;;;;;;;;;27.43;39.74;95006.00;5113838;28;1037;-49
2022/05/22 08:10:08;;;;;;;;;;;;;;;27.31;38.79;95005.41;5113541;28;1048;-51
2022/05/22 08:12:45;;;;;;;;;;;;;;;26.78;38.78;95007.38;5113358;28;995;-50
2022/05/22 08:15:12;;;;;;;;;;;;;;;26.51;40.32;95010.22;5113065;28;1973;-50
2022/05/22 08:17:39;;;;;;;;;;;;;;;26.31;38.69;95006.22;5113184;28;1045;-50
2022/05/22 08:20:09;;;;;;;;;;;;;;;25.95;39.98;94996.91;5113703;28;1021;-50
2022/05/22 08:22:35;;;;;;;;;;;;;;;25.85;40.02;95003.09;5117232;28;1060;-50
2022/05/22 08:25:03;;;;;;;;;;;;;;;25.72;41.34;94996.16;5116913;28;1080;-50
2022/05/22 08:27:29;;;;;;;;;;;;;;;25.43;41.32;94999.16;5117194;28;1036;-50
2022/05/22 08:29:56;;;;;;;;;;;;;;;25.19;42.90;95001.31;5116848;28;1111;-50
2022/05/22 08:32:22;;;;;;;;;;;;;;;25.06;41.89;94996.25;5117071;28;1028;-50
2022/05/22 08:34:48;;;;;;;;;;;;;;;25.00;42.37;95002.75;5117017;28;1089;-50
2022/05/22 08:37:14;;;;;;;;;;;;;;;24.89;41.79;94997.19;5117240;28;1981;-50
2022/05/22 08:39:40;;;;;;;;;;;;;;;24.92;41.62;94996.66;5116887;28;1012;-50
2022/05/22 08:42:13;;;;;;;;;;;;;;;25.03;40.55;94999.53;5117236;28;1050;-50
2022/05/22 08:44:39;;;;;;;;;;;;;;;25.02;40.71;94992.38;5116663;28;1043;-50
2022/05/22 08:47:17;;;;;;;;;;;;;;;24.83;42.51;94989.16;5116838;28;1016;-51
2022/05/22 08:49:48;;;;;;;;;;;;;;;24.61;41.28;94989.97;5116777;28;1003;-51
2022/05/22 08:52:17;;;;;;;;;;;;;;;24.59;41.62;94989.41;5116934;28;1007;-51
2022/05/22 08:54:48;;;;;;;;;;;;;;;24.55;41.45;94989.09;5116572;28;1127;-50
2022/05/22 09:00:05;;;;;;;;;;;;;;;24.53;41.67;94991.25;5116620;28;964;-51
2022/05/22 09:02:36;;;;;;;;;;;;;;;24.30;42.44;94989.53;5116449;28;1072;-51
2022/05/22 09:05:07;;;;;;;;;;;;;;;24.23;43.46;94988.06;5121600;27;1117;-51
2022/05/22 09:07:47;;;;;;;;;;;;;;;24.07;44.25;94987.81;5136882;27;1015;-51
2022/05/22 09:10:20;;;;;;;;;;;;;;;23.86;44.58;94997.56;5137083;27;1067;-51
2022/05/22 09:13:03;;;;;;;;;;;;;;;23.80;45.37;94990.38;5137072;27;1099;-52
2022/05/22 09:15:36;;;;;;;;;;;;;;;23.82;45.36;94992.88;5136864;27;1979;-50
2022/05/22 09:18:20;;;;;;;;;;;;;;;23.71;44.08;95002.75;5136867;27;980;-50
2022/05/22 09:20:57;;;;;;;;;;;;;;;23.70;44.38;94991.03;5136671;27;956;-50
2022/05/22 09:23:25;;;;;;;;;;;;;;;23.76;44.31;95000.13;5136468;27;1028;-50
2022/05/22 09:26:11;;;;;;;;;;;;;;;23.86;44.52;94997.56;5136616;27;1059;-50
2022/05/22 09:28:56;;;;;;;;;;;;;;;24.10;44.69;95011.06;5136471;27;943;-50
2022/05/22 09:31:48;;;;;;;;;;;;;;;24.26;43.75;95009.38;5136007;27;976;-49
2022/05/22 09:34:24;;;;;;;;;;;;;;;24.52;44.58;94996.97;5104784;27;1198;-49
2022/05/22 09:37:08;;;;;;;;;;;;;;;24.62;42.78;94991.63;5136470;27;1898;-50
2022/05/22 09:39:44;;;;;;;;;;;;;;;24.69;43.54;94992.25;5136411;27;959;-50
2022/05/22 09:42:25;;;;;;;;;;;;;;;25.01;42.82;94993.47;5136537;27;1051;-50
2022/05/22 09:45:06;;;;;;;;;;;;;;;25.90;42.00;94982.06;5136437;27;964;-49
2022/05/22 09:47:55;;;;;;;;;;;;;;;26.44;39.61;94985.75;5134966;27;1023;-50
2022/05/22 09:50:21;;;;;;;;;;;;;;;26.47;39.11;94977.84;5097752;27;1161;-50
2022/05/22 09:53:01;;;;;;;;;;;;;;;26.46;37.96;94972.63;5135928;27;917;-50
2022/05/22 09:55:33;;;;;;;;;;;;;;;26.57;37.84;94968.03;5135603;27;1930;-50
2022/05/22 09:58:05;;;;;;;;;;;;;;;26.63;37.69;94966.97;5135990;27;999;-50
2022/05/22 10:00:51;;;;;;;;;;;;;;;26.66;37.67;94956.31;5136044;27;1012;-50
2022/05/22 10:03:37;;;;;;;;;;;;;;;26.47;36.76;94955.09;5136108;27;1067;-50
2022/05/22 10:06:15;;;;;;;;;;;;;;;26.42;39.53;94957.78;5121738;27;2203;-50
2022/05/22 10:09:00;;;;;;;;;;;;;;;26.44;39.63;94955.59;5115484;28;1035;-51
2022/05/22 10:11:36;;;;;;;;;;;;;;;26.63;39.51;94947.78;5115154;28;924;-50
2022/05/22 10:14:08;;;;;;;;;;;;;;;26.25;39.21;94944.25;5115148;28;1245;-51
2022/05/22 10:16:35;;;;;;;;;;;;;;;26.24;40.59;94940.72;5114757;28;1905;-51
2022/05/22 10:19:19;;;;;;;;;;;;;;;26.27;40.19;94948.41;5114988;28;1028;-51
2022/05/22 10:21:49;;;;;;;;;;;;;;;26.26;40.09;94940.44;5114882;28;1012;-53
2022/05/22 10:24:25;;;;;;;;;;;;;;;25.99;39.13;94940.53;5115108;28;1047;-50
2022/05/22 10:26:51;;;;;;;;;;;;;;;25.93;41.19;94938.84;5114786;28;1000;-50
2022/05/22 10:29:17;;;;;;;;;;;;;;;25.86;40.47;94947.28;5115056;28;956;-50
2022/05/22 10:31:48;;;;;;;;;;;;;;;25.79;40.12;94942.00;5114833;28;1196;-50
2022/05/22 10:34:14;;;;;;;;;;;;;;;25.71;36.82;94926.06;5115024;28;1010;-50
2022/05/22 10:36:43;;;;;;;;;;;;;;;25.77;38.27;94935.97;5114539;28;1992;-50
2022/05/22 10:39:11;;;;;;;;;;;;;;;25.91;37.93;94917.16;5114930;28;1158;-50
2022/05/22 10:44:28;;;;;;;;;;;;;;;25.85;37.16;94905.34;5114321;27;1023;-51
2022/05/22 10:46:57;;;;;;;;;;;;;;;25.77;37.81;94900.38;5114487;28;1027;-49
2022/05/22 10:49:25;;;;;;;;;;;;;;;25.92;37.51;94891.47;5114564;28;997;-50
2022/05/22 10:51:55;;;;;;;;;;;;;;;26.25;36.65;94893.03;5114275;28;1048;-50
2022/05/22 10:54:23;;;;;;;;;;;;;;;26.23;36.91;94889.72;5114410;28;1051;-49
2022/05/22 10:56:49;;;;;;;;;;;;;;;26.21;37.22;94891.09;5114036;28;1909;-50
2022/05/22 10:59:20;;;;;;;;;;;;;;;26.13;36.63;94878.72;5114602;28;1067;-49
2022/05/22 11:01:56;;;;;;;;;;;;;;;25.97;36.33;94875.06;5114246;28;1028;-50
2022/05/22 11:04:33;;;;;;;;;;;;;;;25.77;36.99;94874.91;5114233;28;961;-50
2022/05/22 11:07:00;;;;;;;;;;;;;;;25.50;36.96;94864.88;5114192;28;1048;-49
2022/05/22 11:09:29;;;;;;;;;;;;;;;25.38;37.63;94873.22;5114353;28;1036;-49
2022/05/22 11:12:09;;;;;;;;;;;;;;;25.35;36.98;94867.47;5114056;28;1036;-50
2022/05/22 11:14:35;;;;;;;;;;;;;;;25.55;37.26;94856.66;5113898;28;1075;-49
2022/05/22 11:17:10;;;;;;;;;;;;;;;25.75;36.95;94845.06;5113715;28;1988;-49
2022/05/22 11:19:39;;;;;;;;;;;;;;;25.84;38.42;94845.38;5114038;28;995;-49
2022/05/22 11:22:05;;;;;;;;;;;;;;;26.15;37.94;94845.59;5114055;28;1044;-50
2022/05/22 11:24:31;;;;;;;;;;;;;;;26.49;36.51;94846.81;5113803;28;1035;-51
2022/05/22 11:26:59;;;;;;;;;;;;;;;26.78;35.37;94851.06;5113925;28;1033;-50
2022/05/22 11:29:28;;;;;;;;;;;;;;;26.99;36.26;94846.44;5113752;28;1059;-50
2022/05/22 11:31:58;;;;;;;;;;;;;;;26.97;37.50;94852.19;5113597;28;944;-50
2022/05/22 11:34:37;;;;;;;;;;;;;;;26.96;37.74;94849.69;5113624;28;1881;-50
2022/05/22 11:37:20;;;;;;;;;;;;;;;26.92;38.31;94851.34;5113460;28;1910;-50
2022/05/22 11:39:47;;;;;;;;;;;;;;;26.83;37.15;94842.84;5113857;27;988;-50
2022/05/22 11:42:22;;;;;;;;;;;;;;;26.83;37.46;94842.84;5113513;28;998;-50
2022/05/22 11:44:48;;;;;;;;;;;;;;;26.87;37.09;94835.72;5113887;28;969;-50
2022/05/22 11:47:14;;;;;;;;;;;;;;;26.82;37.85;94835.69;5113437;28;1076;-50
2022/05/22 11:49:43;;;;;;;;;;;;;;;26.63;38.07;94836.19;5113735;28;999;-50
2022/05/22 11:55:50;;;;;;;;;;;;;;;26.41;39.22;94828.16;5115165;28;1918;-50
2022/05/22 11:58:38;;;;;;;;;;;;;;;26.36;38.42;94822.66;5117844;28;959;-50
2022/05/22 12:01:15;;;;;;;;;;;;;;;26.36;37.95;94824.56;5117785;28;1033;-50
2022/05/22 12:03:56;;;;;;;;;;;;;;;26.25;38.85;94824.50;5117668;28;1078;-49
2022/05/22 12:06:25;;;;;;;;;;;;;;;26.26;39.59;94819.88;5134238;27;1153;-50
2022/05/22 12:09:10;;;;;;;;;;;;;;;26.25;40.04;94823.69;5138590;27;949;-50
2022/05/22 12:11:55;;;;;;;;;;;;;;;26.21;39.12;94817.09;5137882;27;988;-49
2022/05/22 12:14:27;;;;;;;;;;;;;;;26.16;38.37;94823.41;5137814;27;1238;-49
2022/05/22 12:16:53;;;;;;;;;;;;;;;26.33;38.77;94816.88;5137782;27;1992;-50
2022/05/22 12:19:19;;;;;;;;;;;;;;;26.47;38.82;94821.59;5137979;27;969;-49
2022/05/22 12:21:48;;;;;;;;;;;;;;;26.43;38.44;94822.41;5137809;27;1052;-49
2022/05/22 12:24:14;;;;;;;;;;;;;;;26.21;38.01;94820.66;5137574;27;1825;-49
2022/05/22 12:26:41;;;;;;;;;;;;;;;26.12;38.80;94821.44;5138057;27;961;-49
2022/05/22 12:29:13;;;;;;;;;;;;;;;25.92;38.01;94819.44;5137620;27;1035;-49
2022/05/22 12:31:43;;;;;;;;;;;;;;;25.58;37.91;94826.03;5137639;27;1092;-49
2022/05/22 12:34:12;;;;;;;;;;;;;;;25.33;39.02;94824.78;5137706;27;1052;-50
2022/05/22 12:36:42;;;;;;;;;;;;;;;25.20;39.85;94818.91;5137726;27;1910;-50
2022/05/22 12:39:09;;;;;;;;;;;;;;;24.96;39.30;94827.41;5137446;27;1095;-49
2022/05/22 12:41:46;;;;;;;;;;;;;;;24.85;40.79;94837.47;5137642;27;1036;-50
2022/05/22 12:44:13;;;;;;;;;;;;;;;24.69;41.86;94839.19;5137341;27;1139;-50
2022/05/22 12:46:39;;;;;;;;;;;;;;;24.54;42.44;94830.84;5137367;27;1035;-50
2022/05/22 12:49:19;;;;;;;;;;;;;;;24.44;43.80;94841.63;5137188;27;957;-50
2022/05/22 12:51:55;;;;;;;;;;;;;;;24.34;44.89;94848.63;5137313;27;1012;-49
2022/05/22 12:54:23;;;;;;;;;;;;;;;24.31;45.96;94849.13;5137290;27;1057;-50
2022/05/22 12:56:49;;;;;;;;;;;;;;;24.18;45.89;94863.16;5137457;27;1913;-49
2022/05/22 12:59:27;;;;;;;;;;;;;;;24.11;46.24;94857.91;5137050;27;1019;-49
2022/05/22 13:01:58;;;;;;;;;;;;;;;23.78;47.58;94861.50;5137027;27;1032;-49
2022/05/22 13:04:30;;;;;;;;;;;;;;;23.61;48.00;94861.50;5137197;27;967;-48
2022/05/22 13:07:02;;;;;;;;;;;;;;;23.31;49.48;94867.31;5116634;28;1043;-49
2022/05/22 13:09:31;;;;;;;;;;;;;;;23.33;49.71;94856.97;5116468;28;991;-48
2022/05/22 13:12:20;;;;;;;;;;;;;;;23.29;51.04;94856.63;5116435;28;1004;-49
2022/05/22 13:14:54;;;;;;;;;;;;;;;23.14;50.93;94856.38;5101842;28;1671;-48
2022/05/22 13:17:32;;;;;;;;;;;;;;;23.10;52.01;94847.88;5116500;27;1910;-48
2022/05/22 13:20:02;;;;;;;;;;;;;;;23.05;52.21;94849.69;5116134;28;1020;-48
2022/05/22 13:22:30;;;;;;;;;;;;;;;22.91;53.65;94833.63;5116199;28;972;-48
2022/05/22 13:24:56;;;;;;;;;;;;;;;22.98;53.96;94849.84;5115752;28;973;-49
2022/05/22 13:27:22;;;;;;;;;;;;;;;23.10;54.08;94850.59;5116290;28;1044;-49
2022/05/22 13:29:58;;;;;;;;;;;;;;;23.05;52.68;94850.53;5116168;28;1052;-49
2022/05/22 13:32:28;;;;;;;;;;;;;;;22.91;51.47;94852.69;5116142;28;957;-49
2022/05/22 13:34:54;;;;;;;;;;;;;;;22.86;52.60;94851.78;5116393;28;1009;-49
2022/05/22 13:37:28;;;;;;;;;;;;;;;22.84;52.04;94849.31;5115790;28;1910;-49